Time;durP1;ratioP1;P1;durP2;ratioP2;P2;SDS_P1;SDS_P2;PMS_P1;PMS_P2;Temp;Humidity;BMP_temperature;BMP_pressure;BME280_temperature;BME280_humidity;BME280_pressure;Samples;Min_cycle;Max_cycle;Signal;HPM_P1;HPM_P2
2022/03/11 00:00:51;;;;;;;15.82;9.13;;;;;;;1.73;62.67;101802.88;6314432;22;20090;-83
2022/03/11 00:03:20;;;;;;;16.60;9.15;;;;;;;1.67;61.74;101802.56;6289946;22;20019;-85
2022/03/11 00:05:47;;;;;;;16.63;9.55;;;;;;;1.65;62.74;101802.50;6290279;22;20590;-84
2022/03/11 00:08:14;;;;;;;16.23;10.18;;;;;;;1.64;62.36;101798.16;6290306;22;20030;-85
2022/03/11 00:10:43;;;;;;;16.08;10.73;;;;;;;1.62;62.88;101802.38;6287860;22;20015;-86
2022/03/11 00:13:11;;;;;;;18.67;10.07;;;;;;;1.59;62.86;101795.38;6312122;22;20101;-84
2022/03/11 00:15:38;;;;;;;12.57;8.98;;;;;;;1.52;63.27;101795.03;6289416;22;20024;-84
2022/03/11 00:18:09;;;;;;;12.40;9.18;;;;;;;1.51;63.29;101798.41;6289651;22;20023;-83
2022/03/11 00:20:36;;;;;;;16.00;11.15;;;;;;;1.52;62.47;101798.47;6293100;22;20019;-83
2022/03/11 00:23:03;;;;;;;19.35;11.23;;;;;;;1.53;63.04;101795.09;6295216;22;20041;-82
2022/03/11 00:25:32;;;;;;;19.10;11.10;;;;;;;1.57;63.04;101793.53;6296493;22;20179;-84
2022/03/11 00:28:00;;;;;;;17.25;10.20;;;;;;;1.53;62.77;101795.09;6297283;22;20023;-83
2022/03/11 00:30:31;;;;;;;17.05;10.23;;;;;;;1.49;62.75;101803.50;6297550;22;20429;-84
2022/03/11 00:32:58;;;;;;;16.58;9.95;;;;;;;1.46;62.95;101801.66;6292637;22;20045;-83
2022/03/11 00:35:25;;;;;;;16.83;9.40;;;;;;;1.36;63.74;101802.03;6288806;22;20022;-85
2022/03/11 00:37:51;;;;;;;17.42;9.80;;;;;;;1.39;63.24;101798.72;6289012;22;20022;-85
2022/03/11 00:40:19;;;;;;;17.83;10.05;;;;;;;1.35;63.29;101802.84;6264828;22;20396;-84
2022/03/11 00:42:46;;;;;;;16.40;10.32;;;;;;;1.32;62.94;101803.59;6264032;22;20065;-85
2022/03/11 00:45:13;;;;;;;15.38;9.40;;;;;;;1.32;63.40;101803.59;6290889;22;20098;-83
2022/03/11 00:47:40;;;;;;;21.60;10.07;;;;;;;1.28;64.05;101805.97;6263788;22;20019;-83
2022/03/11 00:50:07;;;;;;;21.58;9.45;;;;;;;1.20;63.83;101817.59;6290377;22;20030;-85
2022/03/11 00:52:34;;;;;;;14.10;9.45;;;;;;;1.18;63.86;101809.78;6264824;22;20045;-83
2022/03/11 00:55:04;;;;;;;15.77;9.38;;;;;;;1.15;64.37;101807.06;6264980;22;20076;-84
2022/03/11 00:57:31;;;;;;;18.23;10.07;;;;;;;1.09;64.85;101806.78;6265726;22;20110;-84
2022/03/11 00:59:58;;;;;;;19.73;9.80;;;;;;;1.05;64.77;101804.84;6290826;22;20022;-84
2022/03/11 01:02:24;;;;;;;14.52;9.57;;;;;;;1.02;65.03;101804.69;6265510;22;20047;-84
2022/03/11 01:04:51;;;;;;;18.13;8.63;;;;;;;1.03;64.72;101806.47;6264161;22;20050;-85
2022/03/11 01:07:18;;;;;;;20.50;11.98;;;;;;;0.99;65.29;101802.84;6290593;22;20104;-84
2022/03/11 01:09:47;;;;;;;15.82;9.23;;;;;;;0.94;64.96;101794.00;6289874;22;20030;-85
2022/03/11 01:12:14;;;;;;;22.73;9.57;;;;;;;0.88;65.13;101804.91;6263084;22;20022;-84
2022/03/11 01:14:43;;;;;;;21.92;11.30;;;;;;;0.85;65.40;101801.28;6290647;22;20027;-84
2022/03/11 01:17:11;;;;;;;17.13;10.05;;;;;;;0.77;65.56;101791.50;6290334;22;20027;-86
2022/03/11 01:19:37;;;;;;;18.02;10.38;;;;;;;0.72;65.96;101794.63;6263665;22;20015;-83
2022/03/11 01:22:04;;;;;;;16.85;10.55;;;;;;;0.69;66.22;101792.78;6266729;22;20446;-83
2022/03/11 01:24:32;;;;;;;17.17;10.30;;;;;;;0.69;66.11;101792.78;6263921;22;20019;-85
2022/03/11 01:26:59;;;;;;;18.90;10.15;;;;;;;0.69;66.01;101789.34;6242320;22;20034;-85
2022/03/11 01:29:26;;;;;;;14.82;9.73;;;;;;;0.65;66.29;101780.56;6263027;22;20053;-84
2022/03/11 01:31:56;;;;;;;15.68;9.27;;;;;;;0.62;66.21;101781.28;6265869;22;20373;-83
2022/03/11 01:34:23;;;;;;;17.48;8.50;;;;;;;0.58;65.80;101778.50;6264207;22;20072;-86
2022/03/11 01:36:50;;;;;;;18.30;10.15;;;;;;;0.57;65.73;101780.19;6290302;22;20106;-84
2022/03/11 01:39:16;;;;;;;16.70;9.63;;;;;;;0.54;65.97;101792.06;6278701;22;20027;-86
2022/03/11 01:41:43;;;;;;;15.68;9.57;;;;;;;0.51;65.81;101777.31;6264739;22;20019;-85
2022/03/11 01:44:14;;;;;;;17.45;9.75;;;;;;;0.48;66.01;101779.72;6293200;22;20015;-85
2022/03/11 01:46:41;;;;;;;15.65;9.50;;;;;;;0.43;66.19;101774.34;6267298;22;20019;-84
2022/03/11 01:49:13;;;;;;;13.98;8.57;;;;;;;0.40;66.26;101774.19;6291751;22;20080;-84
2022/03/11 01:51:43;;;;;;;15.45;8.90;;;;;;;0.38;66.36;101772.34;6267835;22;20436;-84
2022/03/11 01:54:13;;;;;;;19.27;9.93;;;;;;;0.36;66.16;101766.25;6291648;22;20012;-82
2022/03/11 01:56:41;;;;;;;12.65;8.05;;;;;;;0.32;66.35;101767.78;6292344;22;20394;-82
2022/03/11 01:59:18;;;;;;;17.02;7.80;;;;;;;0.29;66.66;101765.06;6266367;22;20023;-84
2022/03/11 02:01:45;;;;;;;19.20;10.52;;;;;;;0.31;66.14;101769.47;6296327;22;20079;-85
2022/03/11 02:04:12;;;;;;;11.68;7.43;;;;;;;0.25;66.02;101766.56;6293074;22;20045;-85
2022/03/11 02:06:45;;;;;;;14.30;8.63;;;;;;;0.22;65.89;101766.44;6268118;22;20015;-85
2022/03/11 02:09:14;;;;;;;13.33;8.93;;;;;;;0.19;66.59;101765.38;6319479;22;20015;-84
2022/03/11 02:11:41;;;;;;;12.23;7.28;;;;;;;0.18;66.11;101758.47;6266821;22;20019;-83
2022/03/11 02:14:16;;;;;;;15.88;7.82;;;;;;;0.17;66.13;101765.31;6293591;22;20492;-86
2022/03/11 02:16:43;;;;;;;12.77;8.55;;;;;;;0.17;66.24;101762.72;6296173;22;20091;-85
2022/03/11 02:19:13;;;;;;;10.45;7.75;;;;;;;0.11;66.61;101757.25;6293823;22;20083;-83
2022/03/11 02:21:49;;;;;;;16.98;7.72;;;;;;;0.06;66.30;101761.28;6294128;22;20031;-85
2022/03/11 02:24:16;;;;;;;12.85;8.38;;;;;;;0.08;66.27;101772.53;6293112;22;20090;-83
2022/03/11 02:26:44;;;;;;;14.85;7.63;;;;;;;-0.01;66.51;101765.25;6293622;22;20110;-84
2022/03/11 02:29:18;;;;;;;14.30;8.15;;;;;;;-0.07;66.79;101770.06;6292940;22;20084;-83
2022/03/11 02:31:45;;;;;;;13.75;8.50;;;;;;;-0.13;67.15;101762.91;6295435;22;20023;-85
2022/03/11 02:34:13;;;;;;;12.27;7.55;;;;;;;-0.19;66.57;101766.03;6294564;22;20026;-83
2022/03/11 02:36:46;;;;;;;15.70;8.57;;;;;;;-0.23;66.94;101758.06;6269526;22;20023;-85
2022/03/11 02:39:14;;;;;;;14.10;7.90;;;;;;;-0.27;67.00;101762.16;6307569;22;20028;-84
2022/03/11 02:41:49;;;;;;;15.18;6.88;;;;;;;-0.32;67.58;101757.59;6318460;22;20019;-83
2022/03/11 02:44:16;;;;;;;11.57;7.35;;;;;;;-0.31;67.27;101752.53;6319946;22;20040;-84
2022/03/11 02:46:43;;;;;;;11.40;8.35;;;;;;;-0.28;66.95;101760.41;6319832;22;20019;-84
2022/03/11 02:49:10;;;;;;;11.45;7.40;;;;;;;-0.31;66.91;101762.81;6294842;22;20029;-84
2022/03/11 02:51:44;;;;;;;14.20;7.90;;;;;;;-0.29;67.03;101761.19;6295180;22;20072;-85
2022/03/11 02:54:11;;;;;;;13.75;8.65;;;;;;;-0.26;66.94;101755.31;6319948;22;20023;-85
2022/03/11 02:56:38;;;;;;;16.42;8.95;;;;;;;-0.26;66.61;101757.91;6294718;22;20039;-84
2022/03/11 02:59:12;;;;;;;13.13;7.97;;;;;;;-0.30;66.88;101756.88;6295178;22;20312;-83
2022/03/11 03:01:39;;;;;;;11.18;7.07;;;;;;;-0.30;66.58;101746.59;6295918;22;20015;-84
2022/03/11 03:04:06;;;;;;;13.32;8.20;;;;;;;-0.31;65.99;101743.91;6321103;22;20019;-85
2022/03/11 03:06:39;;;;;;;17.48;7.78;;;;;;;-0.32;66.99;101742.16;6321733;22;20011;-84
2022/03/11 03:09:11;;;;;;;11.52;6.97;;;;;;;-0.36;66.35;101731.69;6297226;22;20023;-85
2022/03/11 03:11:42;;;;;;;11.38;7.00;;;;;;;-0.36;66.78;101736.81;6323011;22;20015;-85
2022/03/11 03:14:09;;;;;;;15.60;8.50;;;;;;;-0.35;66.55;101742.88;6296499;22;20087;-83
2022/03/11 03:16:36;;;;;;;13.35;8.25;;;;;;;-0.35;66.68;101735.16;6322883;22;20065;-83
2022/03/11 03:19:03;;;;;;;11.57;7.20;;;;;;;-0.36;66.03;101736.81;6323922;22;20011;-84
2022/03/11 03:21:36;;;;;;;14.18;8.07;;;;;;;-0.32;66.46;101730.16;6295278;22;20098;-83
2022/03/11 03:24:07;;;;;;;14.18;8.57;;;;;;;-0.40;66.52;101731.47;6295161;22;20025;-84
2022/03/11 03:26:34;;;;;;;11.13;7.45;;;;;;;-0.41;66.65;101721.97;6296083;22;20013;-84
2022/03/11 03:29:01;;;;;;;12.63;7.68;;;;;;;-0.45;66.77;101725.19;6296983;22;20113;-83
2022/03/11 03:31:28;;;;;;;18.00;8.35;;;;;;;-0.51;66.43;101723.16;6321166;22;20023;-85
2022/03/11 03:33:59;;;;;;;12.20;7.22;;;;;;;-0.54;66.66;101729.00;6297033;22;20038;-84
2022/03/11 03:36:26;;;;;;;13.20;8.50;;;;;;;-0.51;66.19;101718.91;6296445;22;20019;-81
2022/03/11 03:38:53;;;;;;;10.50;7.38;;;;;;;-0.52;66.62;101723.97;6293405;22;20082;-85
2022/03/11 03:41:20;;;;;;;14.50;8.07;;;;;;;-0.54;66.85;101725.56;6294424;22;20109;-85
2022/03/11 03:43:47;;;;;;;13.40;8.80;;;;;;;-0.52;66.32;101718.84;6295651;22;20061;-83
2022/03/11 03:46:16;;;;;;;14.70;8.15;;;;;;;-0.54;66.34;101711.00;6270070;22;20019;-83
2022/03/11 03:48:43;;;;;;;10.88;6.95;;;;;;;-0.62;65.94;101712.28;6297316;22;20035;-84
2022/03/11 03:51:10;;;;;;;9.30;6.30;;;;;;;-0.64;66.25;101718.16;6322061;22;20019;-84
2022/03/11 03:53:40;;;;;;;14.73;7.45;;;;;;;-0.63;66.77;101714.78;6296870;22;20023;-84
2022/03/11 03:56:09;;;;;;;13.05;7.03;;;;;;;-0.63;66.77;101715.66;6294979;22;20041;-85
2022/03/11 03:58:36;;;;;;;12.82;7.22;;;;;;;-0.63;65.84;101709.66;6295749;22;20019;-84
2022/03/11 04:03:43;;;;;;;13.50;7.18;;;;;;;-0.57;66.37;101700.56;6316638;22;20019;-83
2022/03/11 04:06:13;;;;;;;13.60;7.28;;;;;;;-0.59;65.88;101709.88;6295442;22;20041;-84
2022/03/11 04:08:39;;;;;;;14.07;7.05;;;;;;;-0.60;66.25;101696.94;6292994;22;20029;-84
2022/03/11 04:11:07;;;;;;;13.55;7.93;;;;;;;-0.63;66.45;101686.50;6295299;22;20619;-84
2022/03/11 04:13:37;;;;;;;11.20;6.70;;;;;;;-0.66;66.54;101692.38;6295732;22;20034;-84
2022/03/11 04:16:07;;;;;;;12.18;7.97;;;;;;;-0.75;66.08;101679.88;6321747;22;20011;-84
2022/03/11 04:18:34;;;;;;;13.95;6.88;;;;;;;-0.76;66.87;101684.97;6323183;22;20026;-84
2022/03/11 04:21:01;;;;;;;14.43;6.93;;;;;;;-0.79;66.81;101684.81;6296641;22;20042;-85
2022/03/11 04:23:28;;;;;;;16.27;7.45;;;;;;;-0.79;66.61;101683.09;6295495;22;20026;-86
2022/03/11 04:25:58;;;;;;;14.95;8.68;;;;;;;-0.82;67.03;101687.19;6294537;22;20034;-84
2022/03/11 04:28:28;;;;;;;20.67;7.93;;;;;;;-0.88;66.99;101683.47;6320484;22;20007;-85
2022/03/11 04:30:57;;;;;;;16.65;7.93;;;;;;;-0.90;66.87;101682.53;6321936;22;20003;-84
2022/03/11 04:33:27;;;;;;;20.13;9.32;;;;;;;-0.94;67.40;101672.00;6295227;22;20019;-84
2022/03/11 04:35:57;;;;;;;16.83;8.15;;;;;;;-0.94;66.90;101680.59;6294211;22;20019;-83
2022/03/11 04:38:23;;;;;;;13.20;7.68;;;;;;;-0.97;67.22;101669.25;6236512;22;20029;-84
2022/03/11 04:40:53;;;;;;;12.05;7.25;;;;;;;-1.01;67.69;101666.50;6260621;22;20054;-85
2022/03/11 04:43:21;;;;;;;15.18;8.75;;;;;;;-1.06;67.45;101661.94;6261190;22;20229;-86
2022/03/11 04:45:48;;;;;;;14.85;7.05;;;;;;;-1.08;67.75;101650.66;6261879;22;20012;-85
2022/03/11 04:48:17;;;;;;;15.43;7.93;;;;;;;-1.07;67.75;101657.59;6286415;22;20015;-85
2022/03/11 04:50:44;;;;;;;14.93;7.88;;;;;;;-1.08;67.29;101654.13;6260794;22;20070;-84
2022/03/11 04:53:13;;;;;;;17.58;7.40;;;;;;;-1.06;67.47;101654.22;6287102;22;20042;-84
2022/03/11 04:55:39;;;;;;;12.25;7.00;;;;;;;-1.09;67.18;101654.94;6285972;22;20027;-83
2022/03/11 04:58:08;;;;;;;16.77;8.88;;;;;;;-1.10;67.40;101652.28;6267368;22;20019;-84
2022/03/11 05:00:35;;;;;;;12.95;7.47;;;;;;;-1.12;67.40;101653.88;6262601;22;20003;-84
2022/03/11 05:03:02;;;;;;;15.82;8.20;;;;;;;-1.17;67.56;101653.63;6258823;22;20138;-84
2022/03/11 05:05:29;;;;;;;20.13;7.90;;;;;;;-1.19;67.37;101650.09;6258995;22;20100;-85
2022/03/11 05:07:56;;;;;;;14.30;7.53;;;;;;;-1.24;67.97;101656.66;6279484;22;20073;-85
2022/03/11 05:10:23;;;;;;;14.95;7.53;;;;;;;-1.24;68.28;101647.28;6286250;22;20020;-83
2022/03/11 05:12:50;;;;;;;18.42;8.43;;;;;;;-1.29;68.01;101656.41;6258542;22;20023;-84
2022/03/11 05:15:21;;;;;;;14.27;7.22;;;;;;;-1.32;68.29;101661.38;6260034;22;20027;-84
2022/03/11 05:17:48;;;;;;;15.38;8.05;;;;;;;-1.38;68.47;101666.19;6260033;22;20050;-85
2022/03/11 05:20:19;;;;;;;16.98;8.07;;;;;;;-1.36;68.21;101662.88;6279331;22;20019;-84
2022/03/11 05:22:46;;;;;;;20.83;9.02;;;;;;;-1.31;67.78;101660.56;6259279;22;20024;-84
2022/03/11 05:25:13;;;;;;;16.55;8.32;;;;;;;-1.31;68.25;101663.16;6284577;22;20073;-86
2022/03/11 05:27:40;;;;;;;12.32;7.57;;;;;;;-1.34;67.94;101668.13;6257399;22;20020;-84
2022/03/11 05:30:10;;;;;;;14.02;7.72;;;;;;;-1.36;68.16;101669.72;6283890;22;20039;-85
2022/03/11 05:32:45;;;;;;;14.45;8.02;;;;;;;-1.42;68.12;101660.00;6258716;22;20073;-83
2022/03/11 05:35:13;;;;;;;18.77;8.68;;;;;;;-1.45;68.39;101666.63;6284073;22;20015;-84
2022/03/11 05:37:43;;;;;;;13.48;7.88;;;;;;;-1.44;68.32;101674.41;6255372;22;20015;-83
2022/03/11 05:40:11;;;;;;;13.98;8.18;;;;;;;-1.48;67.90;101666.47;6236008;22;20175;-83
2022/03/11 05:42:39;;;;;;;10.38;6.85;;;;;;;-1.50;68.08;101674.97;6233747;22;20050;-84
2022/03/11 05:45:10;;;;;;;18.08;7.45;;;;;;;-1.50;68.16;101676.63;6260283;22;20073;-83
2022/03/11 05:47:42;;;;;;;16.95;8.30;;;;;;;-1.50;68.17;101674.97;6234572;22;20435;-84
2022/03/11 05:50:10;;;;;;;11.07;7.18;;;;;;;-1.54;67.73;101673.03;6234197;22;20026;-84
2022/03/11 05:52:41;;;;;;;15.50;9.13;;;;;;;-1.53;67.76;101674.78;6233961;22;20197;-84
2022/03/11 05:55:10;;;;;;;16.92;7.80;;;;;;;-1.46;67.73;101683.72;6256949;22;20347;-84
2022/03/11 05:57:37;;;;;;;15.25;7.18;;;;;;;-1.50;67.41;101680.09;6259141;22;20150;-84
2022/03/11 06:00:09;;;;;;;17.77;8.23;;;;;;;-1.50;67.09;101676.63;6258019;22;20024;-83
2022/03/11 06:02:39;;;;;;;14.50;7.47;;;;;;;-1.49;67.36;101675.84;6260248;22;20023;-84
2022/03/11 06:05:09;;;;;;;10.50;7.18;;;;;;;-1.49;67.21;101678.41;6235308;22;20053;-84
2022/03/11 06:07:36;;;;;;;14.82;7.90;;;;;;;-1.47;66.66;101681.97;6235008;22;20015;-83
2022/03/11 06:10:04;;;;;;;12.32;6.88;;;;;;;-1.46;66.83;101675.13;6236098;22;20350;-84
2022/03/11 06:12:32;;;;;;;11.82;8.00;;;;;;;-1.46;66.48;101678.59;6261112;22;20059;-83
2022/03/11 06:14:59;;;;;;;14.52;7.78;;;;;;;-1.46;66.39;101686.31;6237886;22;20020;-84
2022/03/11 06:17:26;;;;;;;14.85;7.43;;;;;;;-1.47;66.40;101683.63;6236846;22;20019;-85
2022/03/11 06:19:53;;;;;;;14.68;7.10;;;;;;;-1.51;66.57;101687.72;6263097;22;20015;-83
2022/03/11 06:22:20;;;;;;;13.75;7.43;;;;;;;-1.51;66.90;101688.59;6236357;22;20103;-84
2022/03/11 06:24:48;;;;;;;17.17;8.57;;;;;;;-1.46;66.26;101698.22;6230218;22;20050;-85
2022/03/11 06:27:18;;;;;;;13.27;7.22;;;;;;;-1.48;66.29;101687.00;6234739;22;20035;-84
2022/03/11 06:29:45;;;;;;;15.00;7.57;;;;;;;-1.50;66.52;101686.91;6233034;22;20023;-83
2022/03/11 06:32:14;;;;;;;16.90;8.75;;;;;;;-1.47;66.54;101691.31;6259483;22;20037;-84
2022/03/11 06:34:41;;;;;;;15.57;8.35;;;;;;;-1.42;65.85;101687.34;6232711;22;20024;-85
2022/03/11 06:37:08;;;;;;;14.85;7.13;;;;;;;-1.38;65.79;101697.88;6230780;22;20077;-84
2022/03/11 06:39:35;;;;;;;11.55;7.32;;;;;;;-1.32;65.30;101692.19;6279464;22;20028;-83
2022/03/11 06:42:02;;;;;;;12.73;7.20;;;;;;;-1.23;64.33;101704.69;6259690;22;20020;-83
2022/03/11 06:44:32;;;;;;;11.27;7.35;;;;;;;-1.21;64.76;101692.81;6254438;22;20024;-82
2022/03/11 06:47:00;;;;;;;16.10;7.55;;;;;;;-1.20;63.91;101707.41;6249729;22;20075;-84
2022/03/11 06:49:26;;;;;;;10.60;6.57;;;;;;;-1.17;63.73;101708.47;6281517;22;20019;-84
2022/03/11 06:51:56;;;;;;;20.40;9.52;;;;;;;-1.13;63.69;101712.09;6254416;22;20043;-84
2022/03/11 06:54:22;;;;;;;14.15;7.22;;;;;;;-1.01;63.14;101696.47;6248377;22;20023;-83
2022/03/11 06:56:49;;;;;;;14.45;7.75;;;;;;;-0.65;62.14;101708.66;6276265;22;20046;-84
2022/03/11 06:59:18;;;;;;;14.35;8.73;;;;;;;-0.21;60.63;101697.25;6276839;22;20054;-84
2022/03/11 07:01:45;;;;;;;12.07;7.18;;;;;;;0.14;58.63;101713.63;6253987;22;20093;-83
2022/03/11 07:04:12;;;;;;;10.30;6.68;;;;;;;0.41;57.81;101708.97;6252270;22;20032;-84
2022/03/11 07:06:39;;;;;;;16.42;6.70;;;;;;;0.69;56.81;101709.44;6232516;22;20028;-84
2022/03/11 07:09:06;;;;;;;14.50;7.75;;;;;;;0.97;55.82;101706.50;6282980;22;20050;-84
2022/03/11 07:11:32;;;;;;;9.65;7.38;;;;;;;1.30;55.87;101693.41;6258821;22;20043;-84
2022/03/11 07:13:59;;;;;;;17.38;10.10;;;;;;;1.55;53.67;101704.84;6277363;22;20438;-84
2022/03/11 07:16:26;;;;;;;18.25;11.30;;;;;;;1.70;52.93;101697.78;6278049;22;20814;-83
2022/03/11 07:18:54;;;;;;;14.90;9.45;;;;;;;1.84;52.79;101705.22;6250179;22;20016;-86
2022/03/11 07:21:21;;;;;;;16.60;8.70;;;;;;;1.96;51.77;101695.44;6252707;22;20039;-85
2022/03/11 07:23:54;;;;;;;18.20;9.15;;;;;;;2.17;51.20;101685.16;6277019;22;20019;-83
2022/03/11 07:26:22;;;;;;;12.15;8.35;;;;;;;2.29;50.00;101692.53;6272395;22;20030;-83
2022/03/11 07:28:49;;;;;;;12.23;7.45;;;;;;;2.37;50.48;101691.13;6254612;22;20115;-85
2022/03/11 07:31:17;;;;;;;11.38;8.10;;;;;;;2.57;49.92;101691.97;6259096;22;20496;-83
2022/03/11 07:33:44;;;;;;;13.85;7.55;;;;;;;3.00;48.26;101690.19;6257800;22;20098;-84
2022/03/11 07:36:11;;;;;;;9.48;6.55;;;;;;;3.20;47.87;101700.44;6256124;22;20023;-83
2022/03/11 07:38:37;;;;;;;16.65;9.27;;;;;;;3.22;46.43;101699.66;6255133;22;20514;-84
2022/03/11 07:41:07;;;;;;;12.25;7.40;;;;;;;3.36;47.08;101704.47;6282045;22;20015;-83
2022/03/11 07:43:35;;;;;;;13.30;7.10;;;;;;;3.42;46.72;101703.00;6258225;22;20043;-85
2022/03/11 07:46:02;;;;;;;9.13;7.57;;;;;;;3.73;45.89;101703.22;6257335;22;20023;-85
2022/03/11 07:48:29;;;;;;;13.27;7.20;;;;;;;3.63;44.95;101700.31;6282573;22;20026;-86
2022/03/11 07:50:56;;;;;;;10.73;6.97;;;;;;;3.71;45.33;101691.94;6252354;22;20027;-83
2022/03/11 07:53:23;;;;;;;10.30;6.53;;;;;;;3.92;44.43;101686.63;6281040;22;20095;-84
2022/03/11 07:55:50;;;;;;;7.88;6.10;;;;;;;4.41;44.18;101685.72;6257316;22;20114;-85
2022/03/11 07:58:21;;;;;;;14.40;8.13;;;;;;;4.73;43.18;101688.47;6258960;22;20087;-85
2022/03/11 08:00:52;;;;;;;15.18;7.35;;;;;;;5.11;42.83;101678.41;6260899;22;20023;-84
2022/03/11 08:03:21;;;;;;;13.57;7.82;;;;;;;5.04;42.30;101684.22;6255412;22;20042;-83
2022/03/11 08:05:48;;;;;;;12.88;8.20;;;;;;;4.56;43.20;101687.94;6256266;22;20050;-84
2022/03/11 08:08:15;;;;;;;9.80;6.80;;;;;;;3.67;43.87;101682.31;6253737;22;20011;-85
2022/03/11 08:10:43;;;;;;;13.07;7.93;;;;;;;2.89;45.81;101679.41;6229333;22;20030;-83
2022/03/11 08:13:10;;;;;;;14.23;7.72;;;;;;;2.43;46.87;101667.25;6252859;22;20028;-83
2022/03/11 08:15:45;;;;;;;13.20;7.28;;;;;;;2.17;47.69;101679.97;6255740;22;20043;-85
2022/03/11 08:18:12;;;;;;;14.15;7.20;;;;;;;1.90;48.10;101679.69;6257283;22;20035;-85
2022/03/11 08:20:39;;;;;;;14.27;7.93;;;;;;;1.72;48.66;101674.59;6252720;22;20031;-85
2022/03/11 08:23:06;;;;;;;12.88;7.75;;;;;;;1.67;48.79;101679.59;6281990;22;20119;-84
2022/03/11 08:25:33;;;;;;;12.30;7.22;;;;;;;1.66;48.12;101688.13;6254838;22;20107;-84
2022/03/11 08:28:00;;;;;;;21.25;9.63;;;;;;;1.63;48.14;101675.06;6255059;22;20050;-84
2022/03/11 08:30:27;;;;;;;15.35;7.82;;;;;;;1.65;48.18;101683.78;6256941;22;20083;-85
2022/03/11 08:33:00;;;;;;;11.35;7.18;;;;;;;1.60;47.80;101675.84;6254358;22;20081;-85
2022/03/11 08:35:27;;;;;;;12.73;7.40;;;;;;;1.63;47.16;101681.13;6251612;22;20023;-84
2022/03/11 08:37:56;;;;;;;14.85;6.43;;;;;;;1.94;46.91;101673.84;6253175;22;20020;-84
2022/03/11 08:40:24;;;;;;;12.07;6.55;;;;;;;2.75;44.88;101681.47;6229869;22;20050;-84
2022/03/11 08:42:54;;;;;;;13.63;6.93;;;;;;;3.63;42.65;101674.41;6227846;22;20031;-82
2022/03/11 08:45:22;;;;;;;10.63;6.80;;;;;;;4.11;41.73;101664.84;6229790;22;20080;-86
2022/03/11 08:47:53;;;;;;;10.05;6.75;;;;;;;4.08;41.61;101659.53;6233436;22;20050;-82
2022/03/11 08:50:22;;;;;;;10.10;6.82;;;;;;;4.16;41.44;101668.47;6230104;22;20083;-85
2022/03/11 08:52:51;;;;;;;15.02;6.88;;;;;;;4.55;40.52;101662.84;6229948;22;20029;-85
2022/03/11 08:55:20;;;;;;;12.15;6.25;;;;;;;5.04;39.66;101662.59;6228966;22;20077;-82
2022/03/11 08:57:49;;;;;;;13.63;7.28;;;;;;;5.57;38.75;101658.06;6257021;22;20032;-83
2022/03/11 09:00:19;;;;;;;15.68;7.35;;;;;;;6.21;36.87;101655.44;6256628;22;20049;-82
2022/03/11 09:02:47;;;;;;;11.45;6.78;;;;;;;6.76;35.99;101653.28;6228709;22;20046;-84
2022/03/11 09:05:15;;;;;;;10.77;7.05;;;;;;;6.88;36.21;101650.09;6255259;22;20020;-85
2022/03/11 09:07:43;;;;;;;13.85;7.38;;;;;;;6.18;36.87;101644.97;6228086;22;20015;-88
2022/03/11 09:10:18;;;;;;;11.13;6.20;;;;;;;5.43;37.76;101646.41;6231682;22;20417;-88
2022/03/11 09:12:48;;;;;;;13.90;7.10;;;;;;;4.74;38.72;101647.84;6261199;22;20043;-86
2022/03/11 09:15:16;;;;;;;11.93;6.80;;;;;;;4.23;39.48;101647.09;6229890;22;20027;-83
2022/03/11 09:17:45;;;;;;;12.25;7.32;;;;;;;3.82;39.88;101646.59;6261985;22;20035;-85
2022/03/11 09:20:14;;;;;;;11.48;6.10;;;;;;;3.59;40.72;101638.88;6227776;22;20020;-83
2022/03/11 09:22:41;;;;;;;10.23;6.88;;;;;;;3.43;41.09;101639.19;6228999;22;20027;-84
2022/03/11 09:25:10;;;;;;;10.88;7.38;;;;;;;3.28;41.14;101642.94;6228007;22;20447;-85
2022/03/11 09:27:37;;;;;;;10.30;7.10;;;;;;;3.15;41.66;101640.72;6253498;22;20026;-84
2022/03/11 09:30:07;;;;;;;12.50;6.47;;;;;;;3.06;41.05;101640.41;6233265;22;20038;-84
2022/03/11 09:32:38;;;;;;;14.07;6.18;;;;;;;3.01;41.56;101632.44;6234741;22;20083;-87
2022/03/11 09:35:09;;;;;;;14.27;6.13;;;;;;;3.02;41.18;101634.22;6257324;22;20054;-84
2022/03/11 09:37:39;;;;;;;11.65;6.20;;;;;;;3.03;41.24;101635.97;6231863;22;20039;-84
2022/03/11 09:40:10;;;;;;;12.75;6.88;;;;;;;3.09;40.48;101636.22;6233518;22;20004;-83
2022/03/11 09:42:39;;;;;;;11.88;7.03;;;;;;;3.13;40.27;101640.69;6256209;22;20031;-83
2022/03/11 09:45:07;;;;;;;11.00;6.78;;;;;;;3.17;40.56;101638.19;6260013;22;20019;-84
2022/03/11 09:47:34;;;;;;;10.77;6.97;;;;;;;3.20;40.33;101630.56;6233990;22;20016;-82
2022/03/11 09:50:01;;;;;;;8.55;5.93;;;;;;;3.25;40.65;101629.03;6235724;22;20019;-83
2022/03/11 09:52:28;;;;;;;11.20;6.53;;;;;;;3.34;40.30;101621.59;6255915;22;20027;-81
2022/03/11 09:54:55;;;;;;;9.15;6.20;;;;;;;3.51;40.20;101614.44;6225018;22;20609;-83
2022/03/11 09:57:23;;;;;;;8.98;6.03;;;;;;;3.93;39.70;101610.69;6251299;22;20024;-85
2022/03/11 09:59:50;;;;;;;10.50;5.78;;;;;;;5.22;37.15;101607.75;6250060;22;20035;-84
2022/03/11 10:02:19;;;;;;;9.57;6.43;;;;;;;6.71;34.91;101610.66;6252955;22;20015;-84
2022/03/11 10:04:56;;;;;;;14.57;5.90;;;;;;;8.29;31.95;101595.38;6227250;22;20019;-86
2022/03/11 10:07:28;;;;;;;9.57;5.63;;;;;;;9.78;30.56;101595.56;6229253;22;20032;-84
2022/03/11 10:09:57;;;;;;;10.27;6.38;;;;;;;11.13;28.11;101593.84;6232088;22;20203;-85
2022/03/11 10:12:28;;;;;;;10.32;5.85;;;;;;;11.61;26.60;101596.63;6229227;22;20522;-86
2022/03/11 10:15:05;;;;;;;9.30;6.75;;;;;;;11.38;26.93;101597.41;6228095;22;20043;-87
2022/03/11 10:17:45;;;;;;;10.90;5.80;;;;;;;10.95;26.83;101589.41;6253054;22;20024;-85
2022/03/11 10:20:17;;;;;;;9.35;6.32;;;;;;;11.16;27.15;101589.50;6255966;22;20102;-84
2022/03/11 10:22:50;;;;;;;8.98;5.18;;;;;;;11.37;26.80;101586.06;6256198;22;20030;-83
2022/03/11 10:25:31;;;;;;;12.70;6.45;;;;;;;11.33;25.86;101605.28;6201930;22;20024;-86
2022/03/11 10:28:14;;;;;;;11.70;6.20;;;;;;;11.38;25.98;101579.06;6227635;22;20019;-85
2022/03/11 10:30:43;;;;;;;8.30;5.78;;;;;;;11.44;27.07;101573.84;6228077;22;20402;-85
2022/03/11 10:33:13;;;;;;;10.82;6.78;;;;;;;12.37;24.99;101564.28;6225727;22;20047;-85
2022/03/11 10:35:47;;;;;;;9.70;7.13;;;;;;;12.80;25.55;101572.94;6221734;22;20699;-85
2022/03/11 10:38:22;;;;;;;12.88;6.60;;;;;;;13.37;24.00;101563.03;6253414;22;20016;-85
2022/03/11 10:40:58;;;;;;;8.63;6.35;;;;;;;14.03;24.04;101558.22;6253789;22;20028;-84
2022/03/11 10:43:28;;;;;;;11.95;6.32;;;;;;;14.72;23.15;101556.66;6279262;22;20111;-83
2022/03/11 10:46:02;;;;;;;12.23;5.95;;;;;;;14.50;22.76;101556.84;6252506;22;20079;-85
2022/03/11 10:48:53;;;;;;;11.35;6.30;;;;;;;13.11;24.12;101547.38;6277657;22;20039;-87
2022/03/11 10:51:28;;;;;;;7.72;5.75;;;;;;;11.59;24.81;101555.53;6277682;22;20026;-85
2022/03/11 10:53:56;;;;;;;9.88;5.97;;;;;;;11.70;25.52;101557.28;6276149;22;20030;-86
2022/03/11 10:56:35;;;;;;;9.23;6.45;;;;;;;12.12;24.50;101555.56;6277277;22;20768;-86
2022/03/11 10:59:15;;;;;;;11.88;6.68;;;;;;;12.36;24.07;101538.06;6252091;22;20019;-86
2022/03/11 11:01:46;;;;;;;8.45;6.05;;;;;;;13.33;23.15;101535.00;6254716;22;20087;-86
2022/03/11 11:04:16;;;;;;;12.38;6.25;;;;;;;14.23;22.12;101534.31;6280605;22;20030;-84
2022/03/11 11:06:43;;;;;;;9.32;5.68;;;;;;;14.87;22.44;101532.75;6276912;22;20032;-86
2022/03/11 11:09:13;;;;;;;8.40;5.88;;;;;;;15.57;20.95;101521.19;6253998;22;20101;-85
2022/03/11 11:11:42;;;;;;;7.38;5.78;;;;;;;15.94;20.99;101507.41;6251792;22;20027;-84
2022/03/11 11:14:12;;;;;;;9.18;5.43;;;;;;;16.17;20.71;101500.84;6277716;22;20438;-84
2022/03/11 11:16:48;;;;;;;13.05;6.07;;;;;;;16.19;19.77;101518.41;6254315;22;20451;-86
2022/03/11 11:19:20;;;;;;;10.15;6.13;;;;;;;16.05;20.02;101509.88;6255549;22;20396;-84
2022/03/11 11:21:53;;;;;;;10.48;6.28;;;;;;;15.81;19.75;101522.63;6280620;22;20030;-85
2022/03/11 11:24:27;;;;;;;9.68;6.10;;;;;;;15.90;19.68;101518.91;6249923;22;20447;-85
2022/03/11 11:26:56;;;;;;;;;;;;;;;15.22;19.94;101518.19;6276334;22;20027;-85
2022/03/11 11:29:32;;;;;;;10.32;5.40;;;;;;;15.02;20.58;101502.66;6254146;22;19983;-86
2022/03/11 11:32:01;;;;;;;8.48;5.68;;;;;;;16.08;20.51;101498.38;6258051;22;20007;-85